Time;durP1;ratioP1;P1;durP2;ratioP2;P2;SDS_P1;SDS_P2;PMS_P1;PMS_P2;Temp;Humidity;BMP_temperature;BMP_pressure;BME280_temperature;BME280_humidity;BME280_pressure;Samples;Min_cycle;Max_cycle;Signal;HPM_P1;HPM_P2
2023/01/29 00:02:03;;;;;;;9.13;5.20;;;;;;;-1.26;100.00;101894.72;4940385;29;20126;-80
2023/01/29 00:04:30;;;;;;;7.87;5.60;;;;;;;-1.22;100.00;101895.75;4939719;29;20282;-81
2023/01/29 00:06:58;;;;;;;9.00;5.30;;;;;;;-1.19;100.00;101903.66;4924945;29;20040;-80
2023/01/29 00:09:24;;;;;;;8.57;5.07;;;;;;;-1.32;100.00;101896.13;4941484;28;20521;-81
2023/01/29 00:11:52;;;;;;;9.83;5.23;;;;;;;-1.35;100.00;101896.84;4926210;29;20757;-82
2023/01/29 00:14:20;;;;;;;8.53;4.70;;;;;;;-1.36;100.00;101902.84;4925073;28;20062;-81
2023/01/29 00:16:47;;;;;;;9.23;5.00;;;;;;;-1.29;100.00;101897.16;4939043;29;20091;-83
2023/01/29 00:19:20;;;;;;;8.97;5.60;;;;;;;-1.25;100.00;101890.41;4923403;28;20043;-81
2023/01/29 00:21:46;;;;;;;9.97;5.73;;;;;;;-1.11;100.00;101893.63;4940493;29;20691;-82
2023/01/29 00:24:14;;;;;;;6.90;5.23;;;;;;;-1.28;100.00;101895.44;4937437;29;20043;-82
2023/01/29 00:26:42;;;;;;;8.93;4.87;;;;;;;-1.13;100.00;101886.69;4937273;28;20043;-82
2023/01/29 00:29:08;;;;;;;8.57;5.17;;;;;;;-1.16;100.00;101889.16;4936772;29;20054;-80
2023/01/29 00:31:35;;;;;;;8.40;4.80;;;;;;;-1.15;100.00;101887.44;4924351;29;20043;-81
2023/01/29 00:34:03;;;;;;;10.27;5.50;;;;;;;-1.22;100.00;101881.06;4970817;28;20075;-80
2023/01/29 00:36:32;;;;;;;7.43;5.10;;;;;;;-1.28;100.00;101890.25;4925092;29;20472;-81
2023/01/29 00:39:02;;;;;;;8.47;5.93;;;;;;;-1.30;100.00;101890.19;4959295;28;20046;-81
2023/01/29 00:47:02;;;;;;;9.10;4.93;;;;;;;-1.30;100.00;101894.50;4939395;29;20062;-81
2023/01/29 00:49:37;;;;;;;11.10;5.53;;;;;;;-1.25;100.00;101899.09;4954100;29;20051;-80
2023/01/29 00:54:49;;;;;;;10.33;5.33;;;;;;;-1.18;100.00;101900.22;4957286;28;20082;-81
2023/01/29 00:57:16;;;;;;;9.20;5.50;;;;;;;-1.10;100.00;101893.69;4923600;29;20090;-82
2023/01/29 00:59:42;;;;;;;11.17;6.20;;;;;;;-1.11;100.00;101896.22;4939228;29;20043;-81
2023/01/29 01:04:54;;;;;;;7.70;5.17;;;;;;;-0.99;100.00;101886.44;4955111;28;20031;-81
2023/01/29 01:07:21;;;;;;;8.90;5.70;;;;;;;-1.14;100.00;101890.09;4939808;29;20413;-80
2023/01/29 01:12:33;;;;;;;10.17;6.10;;;;;;;-1.16;100.00;101875.28;4954065;28;20054;-80
2023/01/29 01:15:00;;;;;;;12.37;6.10;;;;;;;-1.14;100.00;101877.13;4937627;29;20047;-81
2023/01/29 01:17:27;;;;;;;12.07;5.93;;;;;;;-1.06;100.00;101872.28;4924265;29;20043;-80
2023/01/29 01:19:54;;;;;;;7.57;5.50;;;;;;;-1.01;100.00;101869.91;4939874;29;20453;-80
2023/01/29 01:22:22;;;;;;;11.23;6.30;;;;;;;-1.11;100.00;101880.66;4941154;29;20070;-81
2023/01/29 01:24:49;;;;;;;9.57;6.10;;;;;;;-1.16;100.00;101868.41;4924251;29;20042;-80
2023/01/29 01:27:18;;;;;;;31.27;6.37;;;;;;;-1.09;100.00;101868.66;4951078;28;20769;-82
2023/01/29 01:29:45;;;;;;;12.03;6.20;;;;;;;-1.03;100.00;101874.13;4935694;29;20400;-81
2023/01/29 01:32:12;;;;;;;11.40;5.90;;;;;;;-0.92;100.00;101860.84;4939559;29;20059;-81
2023/01/29 01:34:39;;;;;;;11.83;6.57;;;;;;;-0.95;100.00;101862.41;4935137;29;20046;-81
2023/01/29 01:37:05;;;;;;;14.23;6.60;;;;;;;-1.01;100.00;101857.84;4937348;29;20039;-81
2023/01/29 01:39:32;;;;;;;11.70;5.80;;;;;;;-1.04;100.00;101855.09;4937021;29;20074;-82
2023/01/29 01:41:59;;;;;;;11.07;6.40;;;;;;;-1.11;100.00;101850.44;4922804;29;20047;-81
2023/01/29 01:44:50;;;;;;;11.63;7.43;;;;;;;-1.05;100.00;101845.53;4955148;28;20071;-82
2023/01/29 01:47:21;;;;;;;12.53;6.17;;;;;;;-1.03;100.00;101848.19;4938214;29;20042;-81
2023/01/29 01:49:52;;;;;;;15.90;7.23;;;;;;;-1.00;100.00;101843.16;4954786;29;20043;-81
2023/01/29 01:52:19;;;;;;;11.90;6.67;;;;;;;-0.96;100.00;101839.88;4954177;28;20046;-80
2023/01/29 01:54:46;;;;;;;11.07;7.17;;;;;;;-1.02;100.00;101830.09;4937610;29;20469;-81
2023/01/29 01:57:16;;;;;;;13.87;7.00;;;;;;;-0.91;100.00;101831.50;4920623;29;20046;-81
2023/01/29 01:59:49;;;;;;;15.83;7.83;;;;;;;-0.90;100.00;101833.25;4921999;29;20036;-81
2023/01/29 02:10:42;;;;;;;16.50;8.47;;;;;;;-0.96;100.00;101821.72;4938417;29;20106;-81
2023/01/29 02:13:09;;;;;;;17.27;9.73;;;;;;;-0.92;100.00;101821.06;4926530;29;20043;-81
2023/01/29 02:15:36;;;;;;;15.97;9.13;;;;;;;-1.00;100.00;101825.00;4936884;29;20047;-81
2023/01/29 02:18:03;;;;;;;16.17;8.23;;;;;;;-0.86;100.00;101829.09;4957130;28;20043;-81
2023/01/29 02:20:33;;;;;;;15.73;8.90;;;;;;;-0.92;100.00;101834.03;4940195;29;20042;-80
2023/01/29 02:23:07;;;;;;;19.17;9.50;;;;;;;-1.06;100.00;101827.31;4938445;29;20048;-81
2023/01/29 02:26:09;;;;;;;13.83;8.67;;;;;;;-0.99;100.00;101827.66;4927551;29;20047;-81
2023/01/29 02:28:44;;;;;;;17.57;9.13;;;;;;;-1.00;100.00;101828.50;4935903;29;20051;-80
2023/01/29 02:31:16;;;;;;;16.33;8.40;;;;;;;-0.95;100.00;101823.50;4926202;29;20098;-81
2023/01/29 02:33:54;;;;;;;16.50;8.87;;;;;;;-1.08;100.00;101822.06;4941356;29;20106;-81
2023/01/29 02:36:26;;;;;;;19.93;10.03;;;;;;;-0.91;100.00;101820.22;4921741;29;20062;-81
2023/01/29 02:39:18;;;;;;;16.67;8.80;;;;;;;-1.01;100.00;101831.00;4941371;29;20073;-81
2023/01/29 02:41:54;;;;;;;17.37;9.13;;;;;;;-0.97;100.00;101826.03;4955361;28;20058;-82
2023/01/29 02:44:39;;;;;;;21.50;9.37;;;;;;;-0.95;100.00;101811.41;4969769;28;20039;-82
2023/01/29 02:47:19;;;;;;;18.83;9.93;;;;;;;-0.87;100.00;101812.63;4953786;29;20047;-81
2023/01/29 02:49:51;;;;;;;15.57;7.93;;;;;;;-1.00;100.00;101822.41;4937557;28;20496;-81
2023/01/29 02:52:22;;;;;;;18.90;9.90;;;;;;;-0.97;100.00;101818.25;4939172;29;20055;-81
2023/01/29 02:54:54;;;;;;;16.03;8.83;;;;;;;-0.91;100.00;101812.44;4940224;29;20408;-82
2023/01/29 02:57:27;;;;;;;19.60;10.03;;;;;;;-0.81;100.00;101816.34;4937784;29;20035;-80
2023/01/29 02:59:58;;;;;;;17.70;10.27;;;;;;;-0.82;100.00;101797.28;4925647;29;20058;-80
2023/01/29 03:02:29;;;;;;;19.03;10.03;;;;;;;-0.86;100.00;101797.94;4939420;29;20046;-82
2023/01/29 03:04:59;;;;;;;20.43;9.53;;;;;;;-0.85;100.00;101798.00;4924945;29;20059;-81
2023/01/29 03:07:41;;;;;;;19.10;10.17;;;;;;;-0.86;100.00;101800.56;4939433;29;20065;-82
2023/01/29 03:10:18;;;;;;;18.83;9.97;;;;;;;-0.90;100.00;101798.66;4941408;29;20126;-79
2023/01/29 03:12:50;;;;;;;19.20;9.63;;;;;;;-0.92;100.00;101788.22;4955330;29;20047;-81
2023/01/29 03:15:23;;;;;;;18.50;9.17;;;;;;;-0.85;100.00;101777.25;4922975;29;20043;-82
2023/01/29 03:17:57;;;;;;;21.33;10.05;;;;;;;-0.86;100.00;101780.69;4938032;29;20043;-81
2023/01/29 03:20:28;;;;;;;18.40;9.77;;;;;;;-0.77;100.00;101768.94;4925273;29;20043;-81
2023/01/29 03:23:00;;;;;;;20.83;10.60;;;;;;;-0.80;100.00;101769.69;4954893;28;20050;-81
2023/01/29 03:33:59;;;;;;;22.13;10.83;;;;;;;-0.78;100.00;101744.69;4950877;28;20043;-81
2023/01/29 03:36:37;;;;;;;21.77;11.37;;;;;;;-0.93;100.00;101741.44;4919555;29;20515;-79
2023/01/29 03:39:10;;;;;;;20.33;10.30;;;;;;;-0.89;100.00;101738.16;4921827;28;20051;-81
2023/01/29 03:41:52;;;;;;;24.13;12.03;;;;;;;-0.88;100.00;101735.63;4952336;29;20054;-80
2023/01/29 03:44:35;;;;;;;22.10;11.80;;;;;;;-0.87;100.00;101736.53;4916863;29;20079;-81
2023/01/29 03:47:26;;;;;;;22.00;10.53;;;;;;;-0.92;100.00;101728.56;4935337;29;20571;-81
2023/01/29 03:49:59;;;;;;;21.87;11.33;;;;;;;-0.97;100.00;101727.47;4954807;28;20046;-81
2023/01/29 03:52:38;;;;;;;24.23;11.48;;;;;;;-0.91;100.00;101721.66;4923216;29;20043;-80
2023/01/29 03:55:25;;;;;;;23.73;12.03;;;;;;;-0.91;100.00;101722.53;4952447;29;20094;-82
2023/01/29 03:57:57;;;;;;;23.30;11.73;;;;;;;-0.90;100.00;101715.66;4923983;29;20054;-80
2023/01/29 04:00:31;;;;;;;24.73;13.40;;;;;;;-0.87;100.00;101702.78;4940489;29;20043;-80
2023/01/29 04:03:23;;;;;;;26.30;12.30;;;;;;;-0.91;100.00;101709.56;4922705;29;20051;-81
2023/01/29 04:05:57;;;;;;;22.70;12.37;;;;;;;-0.98;100.00;101707.53;4950587;28;20086;-81
2023/01/29 04:08:27;;;;;;;24.95;13.05;;;;;;;-1.00;100.00;101713.50;4935066;29;20445;-80
2023/01/29 04:11:00;;;;;;;23.40;12.17;;;;;;;-0.94;100.00;101716.31;4921319;29;20046;-81
2023/01/29 04:13:30;;;;;;;24.52;13.07;;;;;;;-0.88;100.00;101712.28;4944121;29;20047;-81
2023/01/29 04:15:58;;;;;;;29.00;12.77;;;;;;;-0.87;100.00;101707.97;4922367;29;20047;-81
2023/01/29 04:18:24;;;;;;;27.33;14.00;;;;;;;-0.97;100.00;101703.22;4936816;29;20058;-80
2023/01/29 04:20:51;;;;;;;24.50;12.47;;;;;;;-0.92;100.00;101701.72;4938941;29;20098;-79
2023/01/29 04:23:23;;;;;;;28.40;14.63;;;;;;;-0.97;100.00;101704.13;4937303;29;20042;-81
2023/01/29 04:26:06;;;;;;;26.87;14.67;;;;;;;-0.96;100.00;101710.19;4936372;29;20036;-81
2023/01/29 04:28:54;;;;;;;25.77;12.77;;;;;;;-0.97;100.00;101704.13;4951973;29;20119;-81
2023/01/29 04:31:25;;;;;;;27.07;14.60;;;;;;;-0.97;100.00;101709.31;4935329;29;20048;-81
2023/01/29 04:34:37;;;;;;;30.60;15.33;;;;;;;-0.79;100.00;101719.56;4951753;28;20067;-82
2023/01/29 04:37:15;;;;;;;25.90;13.60;;;;;;;-0.81;100.00;101716.03;4950665;29;20055;-81
2023/01/29 04:39:55;;;;;;;28.53;13.77;;;;;;;-0.85;100.00;101715.00;4937536;29;20053;-80
2023/01/29 04:42:29;;;;;;;29.90;14.90;;;;;;;-0.86;100.00;101722.72;4922901;29;20098;-80
2023/01/29 04:45:17;;;;;;;29.00;13.15;;;;;;;-0.77;100.00;101724.81;4921237;29;20090;-80
2023/01/29 04:48:12;;;;;;;26.63;13.37;;;;;;;-0.79;100.00;101729.06;4954010;29;20035;-81
2023/01/29 04:50:46;;;;;;;26.70;13.40;;;;;;;-0.80;100.00;101717.81;4934592;29;20090;-80
2023/01/29 04:53:37;;;;;;;27.13;12.93;;;;;;;-0.84;100.00;101715.91;4921291;29;20035;-81
2023/01/29 04:56:19;;;;;;;27.87;14.73;;;;;;;-0.70;100.00;101706.09;4936871;29;20062;-80
2023/01/29 04:58:51;;;;;;;26.70;13.30;;;;;;;-0.60;100.00;101722.09;4953640;29;20046;-80
2023/01/29 05:01:18;;;;;;;29.63;14.47;;;;;;;-0.66;100.00;101714.09;4934831;29;20063;-81
2023/01/29 05:03:49;;;;;;;28.03;14.10;;;;;;;-0.63;100.00;101716.81;4936529;29;20043;-81
2023/01/29 05:06:17;;;;;;;31.20;15.30;;;;;;;-0.57;100.00;101711.00;4935566;29;20036;-80
2023/01/29 05:08:44;;;;;;;33.47;14.93;;;;;;;-0.50;100.00;101709.53;4921309;29;20039;-80
2023/01/29 05:11:13;;;;;;;30.97;15.17;;;;;;;-0.54;100.00;101705.03;4935581;29;20445;-80
2023/01/29 05:13:41;;;;;;;30.57;14.77;;;;;;;-0.59;100.00;101710.00;4951880;29;20043;-81
2023/01/29 05:16:40;;;;;;;31.77;14.87;;;;;;;-0.61;100.00;101707.38;4935826;29;20059;-82
2023/01/29 05:19:11;;;;;;;35.83;15.67;;;;;;;-0.53;100.00;101712.00;4921567;29;20082;-82
2023/01/29 05:21:43;;;;;;;32.70;15.77;;;;;;;-0.52;100.00;101718.94;4937744;29;20050;-81
2023/01/29 05:24:19;;;;;;;32.13;16.03;;;;;;;-0.52;100.00;101718.94;4937348;29;20039;-81
2023/01/29 05:29:34;;;;;;;36.37;17.30;;;;;;;-0.36;100.00;101718.75;4955281;28;20126;-81
2023/01/29 05:32:02;;;;;;;38.20;17.53;;;;;;;-0.30;100.00;101712.09;4951896;28;20039;-81
2023/01/29 05:34:29;;;;;;;39.53;17.90;;;;;;;-0.40;100.00;101709.09;4919327;28;20035;-79
2023/01/29 05:36:56;;;;;;;36.50;16.77;;;;;;;-0.44;100.00;101701.97;4944740;28;20063;-82
2023/01/29 05:39:22;;;;;;;36.60;15.90;;;;;;;-0.45;100.00;101701.09;4949931;29;20058;-80
2023/01/29 05:41:49;;;;;;;40.30;17.83;;;;;;;-0.41;100.00;101704.72;4955205;28;20039;-81
2023/01/29 05:44:16;;;;;;;34.53;16.63;;;;;;;-0.42;100.00;101698.66;4932034;29;20070;-80
2023/01/29 05:46:43;;;;;;;36.17;17.40;;;;;;;-0.45;100.00;101700.22;4935077;29;20044;-81
2023/01/29 05:49:11;;;;;;;37.03;16.60;;;;;;;-0.37;100.00;101698.81;4935689;29;20059;-80
2023/01/29 05:51:37;;;;;;;34.70;17.40;;;;;;;-0.41;100.00;101702.13;4935480;29;20071;-79
2023/01/29 05:54:06;;;;;;;39.80;17.40;;;;;;;-0.33;100.00;101703.31;4936979;29;20493;-81
2023/01/29 05:56:33;;;;;;;37.87;18.60;;;;;;;-0.28;100.00;101707.84;4937707;29;20083;-81
2023/01/29 05:59:00;;;;;;;40.67;18.80;;;;;;;-0.24;100.00;101710.59;4939101;29;20386;-81
2023/01/29 06:01:26;;;;;;;41.00;18.60;;;;;;;-0.26;100.00;101710.50;4938378;29;20612;-81
2023/01/29 06:03:53;;;;;;;33.27;15.93;;;;;;;-0.38;100.00;101699.63;4936850;29;20051;-80
2023/01/29 06:06:20;;;;;;;39.07;18.83;;;;;;;-0.25;100.00;101695.81;4945889;29;20039;-80
2023/01/29 06:08:50;;;;;;;35.60;16.87;;;;;;;-0.38;100.00;101702.22;4919849;29;20108;-81
2023/01/29 06:11:17;;;;;;;42.17;18.97;;;;;;;-0.33;100.00;101691.22;4964075;28;20047;-80
2023/01/29 06:13:44;;;;;;;35.63;17.07;;;;;;;-0.28;100.00;101697.47;4954264;29;20039;-80
2023/01/29 06:16:12;;;;;;;36.33;16.87;;;;;;;-0.34;100.00;101693.72;4947714;29;20115;-81
2023/01/29 06:18:39;;;;;;;36.10;18.07;;;;;;;-0.35;100.00;101699.75;4948034;29;20043;-80
2023/01/29 06:21:09;;;;;;;35.80;18.57;;;;;;;-0.29;100.00;101694.81;4959894;28;20147;-82
2023/01/29 06:23:36;;;;;;;39.33;16.97;;;;;;;-0.25;100.00;101698.41;4959196;29;20062;-81
2023/01/29 06:26:06;;;;;;;36.33;16.60;;;;;;;-0.16;100.00;101678.91;4949890;29;20232;-81
2023/01/29 06:28:33;;;;;;;35.70;17.37;;;;;;;-0.30;100.00;101690.44;4935138;29;20146;-82
2023/01/29 06:31:04;;;;;;;40.30;18.90;;;;;;;-0.27;100.00;101698.34;4928923;29;20048;-80
2023/01/29 06:33:50;;;;;;;38.00;18.23;;;;;;;-0.29;100.00;101702.59;4952707;29;20044;-81
2023/01/29 06:36:17;;;;;;;34.33;17.07;;;;;;;-0.23;100.00;101699.38;4961379;28;20066;-82
2023/01/29 06:38:44;;;;;;;36.20;18.40;;;;;;;-0.15;100.00;101701.44;4939612;28;20132;-80
2023/01/29 06:41:12;;;;;;;38.80;18.07;;;;;;;-0.30;100.00;101704.31;4988672;28;20046;-80
2023/01/29 06:43:39;;;;;;;41.90;19.90;;;;;;;-0.12;100.00;101706.75;4929207;28;20047;-80
2023/01/29 06:46:06;;;;;;;38.83;18.47;;;;;;;-0.11;100.00;101700.72;4958291;28;20035;-80
2023/01/29 06:48:34;;;;;;;43.80;21.17;;;;;;;-0.10;100.00;101694.72;4939697;29;20448;-81
2023/01/29 06:51:05;;;;;;;36.97;17.80;;;;;;;-0.18;100.00;101690.03;4926413;29;20043;-81
2023/01/29 06:53:35;;;;;;;45.30;18.50;;;;;;;-0.02;100.00;101688.09;4958260;29;20052;-81
2023/01/29 06:56:03;;;;;;;39.80;17.47;;;;;;;-0.10;100.00;101689.50;4956376;29;20070;-81
2023/01/29 06:58:30;;;;;;;42.50;18.50;;;;;;;-0.12;100.00;101704.16;4958678;28;20040;-81
2023/01/29 07:01:04;;;;;;;34.77;16.47;;;;;;;-0.14;100.00;101699.75;4945792;29;20051;-81
2023/01/29 07:03:32;;;;;;;40.60;20.30;;;;;;;-0.15;100.00;101703.16;4963169;28;20103;-79
2023/01/29 07:05:59;;;;;;;45.40;21.47;;;;;;;-0.12;100.00;101701.56;4944199;29;20043;-80
2023/01/29 07:08:27;;;;;;;43.40;19.17;;;;;;;0.00;100.00;101706.38;4943660;29;20039;-82
2023/01/29 07:10:58;;;;;;;43.30;19.93;;;;;;;-0.01;100.00;101709.75;4929003;29;20420;-81
2023/01/29 07:13:25;;;;;;;40.73;18.77;;;;;;;-0.11;100.00;101718.03;4958964;28;20054;-81
2023/01/29 07:15:52;;;;;;;42.40;19.90;;;;;;;0.00;100.00;101711.56;4944847;29;20089;-79
2023/01/29 07:18:19;;;;;;;36.73;18.03;;;;;;;-0.07;100.00;101713.03;4959405;29;20707;-82
2023/01/29 07:20:46;;;;;;;43.60;22.47;;;;;;;-0.09;100.00;101706.88;4947009;28;20050;-81
2023/01/29 07:23:13;;;;;;;41.43;19.97;;;;;;;-0.05;100.00;101689.69;4943394;29;20907;-82
2023/01/29 07:25:40;;;;;;;42.50;19.00;;;;;;;-0.02;100.00;101677.72;4961408;28;20039;-80
2023/01/29 07:28:07;;;;;;;42.17;19.50;;;;;;;-0.09;100.00;101670.50;4951969;28;20066;-81
2023/01/29 07:30:34;;;;;;;46.37;21.07;;;;;;;-0.09;100.00;101665.31;4945397;29;20475;-81
2023/01/29 07:33:02;;;;;;;40.47;19.90;;;;;;;0.03;100.00;101640.66;4946146;29;21231;-80
2023/01/29 07:35:40;;;;;;;45.23;19.80;;;;;;;-0.05;100.00;101646.44;4944085;29;20101;-80
2023/01/29 07:38:08;;;;;;;35.43;18.83;;;;;;;0.03;100.00;101643.25;4962183;28;20051;-80
2023/01/29 07:40:36;;;;;;;44.63;20.83;;;;;;;0.03;100.00;101651.03;4945638;29;20035;-82
2023/01/29 07:43:05;;;;;;;40.63;20.37;;;;;;;-0.03;100.00;101641.28;4960530;29;20066;-80
2023/01/29 07:45:37;;;;;;;49.80;22.87;;;;;;;0.05;100.00;101647.66;4959568;29;20489;-80
2023/01/29 07:48:05;;;;;;;45.83;23.00;;;;;;;0.08;100.00;101657.28;4930362;29;20075;-81
2023/01/29 07:50:33;;;;;;;43.70;20.83;;;;;;;0.07;100.00;101663.28;4946635;29;20051;-81
2023/01/29 07:53:00;;;;;;;50.10;21.37;;;;;;;0.07;100.00;101663.28;4946273;29;20043;-80
2023/01/29 07:55:30;;;;;;;46.43;19.43;;;;;;;0.05;100.00;101662.38;4930183;29;20039;-81
2023/01/29 07:57:58;;;;;;;50.40;20.87;;;;;;;0.02;100.00;101670.06;5033272;23;20038;-79
2023/01/29 08:00:25;;;;;;;45.10;23.17;;;;;;;0.12;100.00;101688.63;4938749;28;20047;-78
2023/01/29 08:02:52;;;;;;;52.63;26.33;;;;;;;0.18;100.00;101688.88;4938664;28;20499;-77
2023/01/29 08:05:19;;;;;;;47.37;22.20;;;;;;;0.07;100.00;101677.19;4951224;28;20496;-76
2023/01/29 08:07:51;;;;;;;43.73;20.07;;;;;;;0.25;100.00;101675.31;4976593;28;20407;-78
2023/01/29 08:10:32;;;;;;;40.20;19.43;;;;;;;0.22;100.00;101666.47;4956385;28;20049;-78
2023/01/29 08:13:00;;;;;;;43.57;21.07;;;;;;;0.26;100.00;101653.69;4956679;28;20084;-78
2023/01/29 08:15:27;;;;;;;42.77;18.27;;;;;;;0.17;100.00;101665.41;4939897;28;20050;-78
2023/01/29 08:17:54;;;;;;;47.33;19.60;;;;;;;0.11;100.00;101660.88;4941729;28;20432;-79
2023/01/29 08:20:24;;;;;;;42.30;20.00;;;;;;;0.20;100.00;101660.34;4959187;28;20051;-77
2023/01/29 08:23:02;;;;;;;43.27;20.17;;;;;;;0.24;100.00;101655.31;4939854;28;20058;-80
2023/01/29 08:25:29;;;;;;;44.70;20.47;;;;;;;0.20;100.00;101655.16;4960814;28;20035;-79
2023/01/29 08:27:56;;;;;;;41.43;18.47;;;;;;;0.31;100.00;101656.44;4967594;28;20047;-77
2023/01/29 08:30:28;;;;;;;43.40;18.80;;;;;;;0.30;100.00;101648.56;4985153;28;20161;-80
2023/01/29 08:32:55;;;;;;;41.07;19.33;;;;;;;0.27;100.00;101654.56;4968143;28;21575;-78
2023/01/29 08:35:22;;;;;;;77.37;38.87;;;;;;;0.37;100.00;101641.06;4952228;28;20046;-76
2023/01/29 08:37:53;;;;;;;49.43;27.27;;;;;;;0.32;100.00;101637.41;4966395;28;20117;-76
2023/01/29 08:40:21;;;;;;;43.77;22.43;;;;;;;0.37;100.00;101650.56;4970574;28;20098;-79
2023/01/29 08:42:47;;;;;;;43.13;19.87;;;;;;;0.43;100.00;101635.22;4949127;28;20144;-76
2023/01/29 08:45:14;;;;;;;48.90;20.30;;;;;;;0.44;100.00;101643.06;4968880;28;20136;-76
2023/01/29 08:47:48;;;;;;;44.53;20.67;;;;;;;0.40;100.00;101630.78;4953115;28;20048;-76
2023/01/29 08:50:16;;;;;;;43.80;20.00;;;;;;;0.44;100.00;101630.06;4949743;28;20109;-78
2023/01/29 08:52:46;;;;;;;45.30;20.97;;;;;;;0.41;100.00;101632.53;4950535;28;20049;-80
2023/01/29 08:55:30;;;;;;;45.13;21.20;;;;;;;0.40;100.00;101638.56;4979197;28;20134;-78
2023/01/29 08:57:57;;;;;;;46.50;21.60;;;;;;;0.47;100.00;101639.69;4956312;28;20066;-76
2023/01/29 09:00:23;;;;;;;41.87;19.27;;;;;;;0.45;100.00;101633.56;4940910;28;20046;-77
2023/01/29 09:02:50;;;;;;;47.33;22.23;;;;;;;0.49;100.00;101638.91;4942928;28;20050;-78
2023/01/29 09:05:17;;;;;;;41.23;20.07;;;;;;;0.49;100.00;101640.63;4947914;28;20054;-79
2023/01/29 09:07:44;;;;;;;44.00;21.97;;;;;;;0.51;100.00;101649.38;4954576;28;20045;-80
2023/01/29 09:10:12;;;;;;;45.77;20.87;;;;;;;0.55;100.00;101644.31;4947760;28;20039;-77
2023/01/29 09:12:38;;;;;;;44.17;20.77;;;;;;;0.59;100.00;101642.75;4962033;28;20047;-77
2023/01/29 09:15:06;;;;;;;41.13;20.67;;;;;;;0.66;100.00;101639.50;4961451;28;20039;-77
2023/01/29 09:17:32;;;;;;;50.00;23.10;;;;;;;0.53;100.00;101638.19;4964196;28;20035;-78
2023/01/29 09:19:59;;;;;;;38.70;18.80;;;;;;;0.56;100.00;101634.81;4962211;28;20054;-77
2023/01/29 09:22:26;;;;;;;82.23;45.90;;;;;;;0.60;100.00;101635.81;4950350;28;20074;-77
2023/01/29 09:24:54;;;;;;;54.13;38.93;;;;;;;0.66;100.00;101636.91;4960435;28;20105;-77
2023/01/29 09:27:21;;;;;;;38.07;19.67;;;;;;;0.70;100.00;101619.69;4958590;28;20039;-77
2023/01/29 09:29:47;;;;;;;37.30;19.90;;;;;;;0.71;100.00;101631.88;4943000;28;20050;-76
2023/01/29 09:32:14;;;;;;;42.03;21.67;;;;;;;0.68;100.00;101652.56;4962286;28;20032;-77
2023/01/29 09:34:57;;;;;;;42.17;30.30;;;;;;;0.75;100.00;101650.22;4971613;28;20046;-76
2023/01/29 09:37:23;;;;;;;37.97;18.50;;;;;;;0.66;100.00;101643.81;4968078;28;20097;-77
2023/01/29 09:39:50;;;;;;;34.07;17.47;;;;;;;0.74;100.00;101638.06;4981560;28;20039;-77
2023/01/29 09:42:18;;;;;;;41.03;19.67;;;;;;;0.84;100.00;101626.25;4964398;28;20061;-76
2023/01/29 09:45:03;;;;;;;36.63;18.13;;;;;;;0.79;100.00;101627.81;4964381;28;20043;-79
2023/01/29 09:47:32;;;;;;;34.00;16.33;;;;;;;0.81;100.00;101636.56;4939138;28;20035;-76
2023/01/29 09:50:06;;;;;;;34.73;16.57;;;;;;;0.78;100.00;101626.94;4967547;28;20062;-76
2023/01/29 09:52:40;;;;;;;32.88;18.42;;;;;;;0.76;100.00;101630.31;4934231;28;20042;-77
2023/01/29 09:55:41;;;;;;;32.20;18.73;;;;;;;0.88;100.00;101625.53;4973608;28;20046;-77
2023/01/29 09:58:18;;;;;;;33.13;17.33;;;;;;;0.88;100.00;101628.13;4932496;28;20043;-77
2023/01/29 10:00:56;;;;;;;34.20;15.77;;;;;;;0.90;100.00;101628.19;4960965;28;20179;-76
2023/01/29 10:04:00;;;;;;;32.83;16.53;;;;;;;0.87;100.00;101628.09;4957496;28;20058;-77
2023/01/29 10:07:04;;;;;;;31.37;16.10;;;;;;;0.92;100.00;101634.31;4963730;28;20039;-81
2023/01/29 10:10:03;;;;;;;47.00;21.47;;;;;;;0.95;100.00;101634.44;4965016;28;20527;-78
2023/01/29 10:12:52;;;;;;;43.07;20.87;;;;;;;0.96;100.00;101629.28;4931693;28;20065;-80
2023/01/29 10:15:22;;;;;;;42.60;20.40;;;;;;;0.95;100.00;101616.22;4938028;28;20522;-81
2023/01/29 10:18:12;;;;;;;50.03;25.03;;;;;;;0.94;100.00;101601.44;4965142;28;20050;-81
2023/01/29 10:21:00;;;;;;;39.17;19.40;;;;;;;0.99;100.00;101602.47;4950662;28;20038;-80
2023/01/29 10:23:34;;;;;;;39.00;17.67;;;;;;;0.95;100.00;101598.00;4976423;28;20039;-82
2023/01/29 10:26:01;;;;;;;35.90;17.37;;;;;;;0.97;100.00;101593.75;4935361;28;20657;-79
2023/01/29 10:28:32;;;;;;;35.80;18.80;;;;;;;1.05;100.00;101600.97;4951389;28;20655;-81
2023/01/29 10:31:03;;;;;;;36.80;18.23;;;;;;;1.11;100.00;101601.19;4952018;28;20043;-80
2023/01/29 10:33:41;;;;;;;33.30;16.80;;;;;;;1.10;100.00;101586.41;4971080;28;20554;-80
2023/01/29 10:36:32;;;;;;;33.20;17.33;;;;;;;1.17;100.00;101573.56;4966487;28;20046;-81
2023/01/29 10:38:59;;;;;;;27.67;15.70;;;;;;;1.17;100.00;101570.97;4971318;28;20062;-81
2023/01/29 10:41:47;;;;;;;38.43;18.60;;;;;;;1.28;100.00;101564.41;4987086;28;20034;-80
2023/01/29 10:44:24;;;;;;;33.80;17.07;;;;;;;1.26;100.00;101542.63;4965750;28;21041;-80
2023/01/29 10:47:39;;;;;;;33.13;16.57;;;;;;;1.23;100.00;101546.00;4980627;28;20035;-81
2023/01/29 10:50:27;;;;;;;36.10;17.53;;;;;;;1.29;100.00;101538.41;4909174;29;20048;-80
2023/01/29 10:53:08;;;;;;;36.50;17.67;;;;;;;1.30;100.00;101537.56;4956534;28;20443;-80
2023/01/29 10:56:09;;;;;;;36.83;19.40;;;;;;;1.28;100.00;101535.75;4971501;28;20101;-80
2023/01/29 10:58:54;;;;;;;43.67;19.60;;;;;;;1.27;100.00;101545.28;4944426;28;20047;-80
2023/01/29 11:01:21;;;;;;;35.40;19.67;;;;;;;1.23;100.00;101532.13;4971614;28;20042;-82
2023/01/29 11:03:58;;;;;;;37.37;16.77;;;;;;;1.24;100.00;101526.06;4969350;28;20039;-81
2023/01/29 11:06:33;;;;;;;32.60;17.17;;;;;;;1.17;100.00;101524.09;4970196;28;20035;-81
2023/01/29 11:09:28;;;;;;;36.73;18.83;;;;;;;1.21;100.00;101511.25;4980670;28;20047;-78
2023/01/29 11:12:02;;;;;;;31.60;15.77;;;;;;;1.25;100.00;101518.31;4954815;28;20098;-79
2023/01/29 11:14:33;;;;;;;38.65;18.00;;;;;;;1.29;100.00;101522.78;4971558;28;20058;-79
2023/01/29 11:16:59;;;;;;;37.57;18.10;;;;;;;1.35;100.00;101511.69;4970506;28;20205;-78
2023/01/29 11:19:42;;;;;;;33.40;17.23;;;;;;;1.33;100.00;101500.31;4972929;28;20034;-78
2023/01/29 11:22:20;;;;;;;34.47;16.87;;;;;;;1.32;100.00;101506.38;4988988;28;20042;-81
2023/01/29 11:25:16;;;;;;;31.37;17.63;;;;;;;1.38;100.00;101506.56;4972526;28;20030;-81
2023/01/29 11:27:44;;;;;;;35.60;18.17;;;;;;;1.42;100.00;101496.28;4971556;28;20039;-80
2023/01/29 11:30:27;;;;;;;33.57;17.03;;;;;;;1.51;100.00;101498.25;4972425;28;20407;-81
2023/01/29 11:33:13;;;;;;;34.63;17.80;;;;;;;1.54;100.00;101490.56;4946850;28;20038;-81
2023/01/29 11:35:39;;;;;;;32.93;17.20;;;;;;;1.59;100.00;101491.56;4959197;28;20046;-80
2023/01/29 11:38:20;;;;;;;31.40;16.00;;;;;;;1.55;100.00;101494.94;4950407;28;20049;-80
2023/01/29 11:40:47;;;;;;;33.33;16.57;;;;;;;1.57;100.00;101490.63;4967604;28;20051;-82
2023/01/29 11:43:21;;;;;;;33.57;16.87;;;;;;;1.65;100.00;101483.94;4985943;28;20047;-82
2023/01/29 11:45:50;;;;;;;29.23;15.68;;;;;;;1.59;100.00;101478.53;4983645;28;20049;-81
2023/01/29 11:48:19;;;;;;;30.10;15.77;;;;;;;1.74;100.00;101467.69;4937864;28;20161;-83
2023/01/29 11:50:51;;;;;;;27.80;15.50;;;;;;;1.88;100.00;101465.47;4970796;28;20066;-84
2023/01/29 11:53:38;;;;;;;27.87;14.53;;;;;;;1.91;100.00;101461.22;4965851;28;20047;-83
2023/01/29 11:56:19;;;;;;;28.80;15.77;;;;;;;1.88;100.00;101463.75;4965885;28;20042;-85
2023/01/29 11:58:47;;;;;;;26.13;13.87;;;;;;;1.93;100.00;101449.13;4937408;28;20051;-84
2023/01/29 12:01:16;;;;;;;23.33;13.70;;;;;;;1.84;100.00;101450.59;4944291;28;20047;-83
2023/01/29 12:03:47;;;;;;;27.23;14.70;;;;;;;1.89;100.00;101436.84;4957201;28;20039;-84
2023/01/29 12:06:26;;;;;;;27.73;15.87;;;;;;;1.88;100.00;101444.63;4958301;28;20059;-85